createdAt,value
2023-10-22T00:00:09.604Z,97298.72
2023-10-22T00:02:39.669Z,97305.78
2023-10-22T00:05:07.355Z,97304.78
2023-10-22T00:07:34.920Z,97309.31
2023-10-22T00:10:01.485Z,97311.81
2023-10-22T00:12:28.503Z,97307.00
2023-10-22T00:14:55.386Z,97305.75
2023-10-22T00:17:21.937Z,97309.44
2023-10-22T00:19:48.600Z,97309.31
2023-10-22T00:22:15.524Z,97305.06
2023-10-22T00:24:42.593Z,97302.28
2023-10-22T00:27:09.361Z,97301.41
2023-10-22T00:29:36.061Z,97306.88
2023-10-22T00:32:02.952Z,97307.97
2023-10-22T00:34:29.983Z,97314.91
2023-10-22T00:36:56.700Z,97309.09
2023-10-22T00:39:23.224Z,97306.91
2023-10-22T00:41:49.749Z,97311.41
2023-10-22T00:44:16.341Z,97316.44
2023-10-22T00:46:46.093Z,97310.78
2023-10-22T00:49:13.746Z,97316.72
2023-10-22T00:51:40.450Z,97315.19
2023-10-22T00:54:07.041Z,97307.59
2023-10-22T00:56:34.661Z,97318.66
2023-10-22T00:59:01.512Z,97314.00
2023-10-22T01:01:28.617Z,97314.59
2023-10-22T01:03:55.297Z,97323.88
2023-10-22T01:06:22.517Z,97321.88
2023-10-22T01:08:49.075Z,97313.38
2023-10-22T01:11:16.519Z,97317.91
2023-10-22T01:13:43.026Z,97323.53
2023-10-22T01:16:10.105Z,97328.69
2023-10-22T01:18:37.589Z,97330.78
2023-10-22T01:21:07.421Z,97325.84
2023-10-22T01:23:40.304Z,97329.78
2023-10-22T01:26:07.970Z,97327.81
2023-10-22T01:28:35.599Z,97325.38
2023-10-22T01:31:02.457Z,97324.72
2023-10-22T01:33:29.097Z,97329.38
2023-10-22T01:35:55.683Z,97327.16
2023-10-22T01:38:22.541Z,97327.84
2023-10-22T01:40:49.107Z,97332.91
2023-10-22T01:43:15.608Z,97330.22
2023-10-22T01:45:42.065Z,97338.66
2023-10-22T01:48:09.329Z,97338.06
2023-10-22T01:50:36.017Z,97344.44
2023-10-22T01:53:02.956Z,97334.16
2023-10-22T01:55:29.516Z,97334.97
2023-10-22T01:57:56.135Z,97335.44
2023-10-22T02:00:23.047Z,97328.72
2023-10-22T02:02:50.055Z,97337.81
2023-10-22T02:05:17.239Z,97334.53
2023-10-22T02:07:43.912Z,97348.75
2023-10-22T02:10:10.922Z,97341.22
2023-10-22T02:12:38.164Z,97338.88
2023-10-22T02:15:05.533Z,97344.47
2023-10-22T02:17:32.216Z,97355.59
2023-10-22T02:19:58.716Z,97353.88
2023-10-22T02:22:25.257Z,97356.19
2023-10-22T02:24:52.181Z,97363.13
2023-10-22T02:27:18.653Z,97355.13
2023-10-22T02:29:45.206Z,97356.47
2023-10-22T02:32:11.705Z,97364.75
2023-10-22T02:34:38.441Z,97361.28
2023-10-22T02:37:05.321Z,97360.41
2023-10-22T02:39:32.694Z,97358.97
2023-10-22T02:41:59.209Z,97361.47
2023-10-22T02:44:25.759Z,97375.16
2023-10-22T02:46:52.199Z,97365.41
2023-10-22T02:49:18.772Z,97368.19
2023-10-22T02:51:45.764Z,97354.59
2023-10-22T02:54:12.304Z,97364.81
2023-10-22T02:56:40.445Z,97361.72
2023-10-22T02:59:07.027Z,97367.16
2023-10-22T03:01:34.239Z,97369.75
2023-10-22T03:04:01.433Z,97368.47
2023-10-22T03:06:28.074Z,97375.38
2023-10-22T03:08:54.641Z,97370.34
2023-10-22T03:11:21.129Z,97368.81
2023-10-22T03:13:50.352Z,97364.78
2023-10-22T03:16:17.321Z,97361.84
2023-10-22T03:18:45.872Z,97360.19
2023-10-22T03:21:12.861Z,97361.84
2023-10-22T03:23:42.741Z,97364.34
2023-10-22T03:26:12.799Z,97360.91
2023-10-22T03:28:39.925Z,97359.28
2023-10-22T03:31:06.688Z,97369.81
2023-10-22T03:33:33.885Z,97368.91
2023-10-22T03:36:01.850Z,97365.81
2023-10-22T03:38:28.581Z,97368.69
2023-10-22T03:41:03.447Z,97377.81
2023-10-22T03:43:31.106Z,97380.09
2023-10-22T03:45:58.412Z,97381.66
2023-10-22T03:48:25.852Z,97371.84
2023-10-22T03:50:52.690Z,97377.88
2023-10-22T03:53:19.402Z,97372.31
2023-10-22T03:55:46.437Z,97375.44
2023-10-22T03:58:12.948Z,97382.31
2023-10-22T04:00:39.900Z,97378.25
2023-10-22T04:03:06.497Z,97380.75
2023-10-22T04:05:33.390Z,97391.81
2023-10-22T04:08:00.212Z,97391.75
2023-10-22T04:10:26.805Z,97388.28
2023-10-22T04:12:53.432Z,97385.41
2023-10-22T04:15:20.113Z,97382.81
2023-10-22T04:17:50.380Z,97383.72
2023-10-22T04:20:17.508Z,97388.72
2023-10-22T04:22:44.689Z,97393.06
2023-10-22T04:25:12.528Z,97392.94
2023-10-22T04:27:39.126Z,97391.16
2023-10-22T04:30:06.421Z,97396.31
2023-10-22T04:32:34.722Z,97403.94
2023-10-22T04:35:01.542Z,97408.09
2023-10-22T04:37:29.106Z,97411.06
2023-10-22T04:40:00.129Z,97408.38
2023-10-22T04:42:28.984Z,97403.09
2023-10-22T04:44:56.239Z,97414.38
2023-10-22T04:47:23.003Z,97409.09
2023-10-22T04:49:54.401Z,97429.81
2023-10-22T04:52:35.561Z,97431.53
2023-10-22T04:55:02.619Z,97427.81
2023-10-22T04:57:29.396Z,97440.22
2023-10-22T04:59:56.544Z,97437.47
2023-10-22T05:02:23.119Z,97438.00
2023-10-22T05:04:53.401Z,97430.91
2023-10-22T05:07:20.227Z,97445.84
2023-10-22T05:09:46.833Z,97442.50
2023-10-22T05:12:13.498Z,97449.53
2023-10-22T05:14:40.217Z,97451.44
2023-10-22T05:17:08.008Z,97464.44
2023-10-22T05:19:35.561Z,97458.38
2023-10-22T05:22:02.543Z,97465.19
2023-10-22T05:24:29.047Z,97466.94
2023-10-22T05:26:55.576Z,97480.75
2023-10-22T05:29:22.111Z,97480.97
2023-10-22T05:31:48.822Z,97481.09
2023-10-22T05:34:15.298Z,97482.19
2023-10-22T05:36:42.999Z,97482.91
2023-10-22T05:39:09.580Z,97485.72
2023-10-22T05:41:36.140Z,97493.25
2023-10-22T05:44:04.356Z,97496.59
2023-10-22T05:46:34.558Z,97501.75
2023-10-22T05:49:04.725Z,97505.94
2023-10-22T05:51:33.865Z,97504.00
2023-10-22T05:54:00.620Z,97501.31
2023-10-22T05:56:29.528Z,97512.38
2023-10-22T05:58:56.030Z,97508.03
2023-10-22T06:01:22.526Z,97510.53
2023-10-22T06:03:49.839Z,97518.91
2023-10-22T06:06:25.266Z,97530.88
2023-10-22T06:08:51.740Z,97532.56
2023-10-22T06:11:18.250Z,97532.56
2023-10-22T06:13:44.727Z,97541.88
2023-10-22T06:16:11.756Z,97543.75
2023-10-22T06:18:38.935Z,97546.19
2023-10-22T06:21:15.761Z,97550.16
2023-10-22T06:23:43.095Z,97558.59
2023-10-22T06:26:11.256Z,97561.84
2023-10-22T06:28:38.751Z,97568.34
2023-10-22T06:31:09.217Z,97558.13
2023-10-22T06:33:37.050Z,97568.53
2023-10-22T06:36:15.007Z,97567.50
2023-10-22T06:38:42.615Z,97571.56
2023-10-22T06:41:21.606Z,97575.94
2023-10-22T06:43:48.516Z,97577.59
2023-10-22T06:46:15.845Z,97587.66
2023-10-22T06:48:43.772Z,97588.19
2023-10-22T06:51:11.880Z,97594.03
2023-10-22T06:53:39.825Z,97596.72
2023-10-22T06:56:07.335Z,97600.06
2023-10-22T06:58:34.005Z,97606.75
2023-10-22T07:01:08.546Z,97606.47
2023-10-22T07:03:36.416Z,97607.50
2023-10-22T07:06:03.436Z,97615.00
2023-10-22T07:08:30.858Z,97601.31
2023-10-22T07:10:57.864Z,97610.50
2023-10-22T07:13:25.176Z,97608.53
2023-10-22T07:15:52.779Z,97615.72
2023-10-22T07:18:19.636Z,97617.47
2023-10-22T07:20:46.264Z,97623.00
2023-10-22T07:23:12.882Z,97630.84
2023-10-22T07:25:39.525Z,97634.03
2023-10-22T07:28:06.726Z,97636.78
2023-10-22T07:30:33.806Z,97639.09
2023-10-22T07:33:00.423Z,97647.41
2023-10-22T07:35:27.081Z,97649.03
2023-10-22T07:37:53.734Z,97644.91
2023-10-22T07:40:20.401Z,97635.44
2023-10-22T07:42:46.990Z,97637.88
2023-10-22T07:45:13.634Z,97643.13
2023-10-22T07:47:40.275Z,97643.91
2023-10-22T07:50:08.077Z,97648.28
2023-10-22T07:52:38.122Z,97645.41
2023-10-22T07:55:06.697Z,97652.81
2023-10-22T07:57:33.539Z,97652.41
2023-10-22T08:00:00.098Z,97656.63
2023-10-22T08:02:26.650Z,97663.47
2023-10-22T08:04:53.180Z,97661.06
2023-10-22T08:07:20.159Z,97670.78
2023-10-22T08:09:47.358Z,97668.47
2023-10-22T08:12:14.670Z,97681.16
2023-10-22T08:14:42.011Z,97677.34
2023-10-22T08:17:08.485Z,97681.69
2023-10-22T08:19:35.313Z,97686.69
2023-10-22T08:22:01.849Z,97680.88
2023-10-22T08:24:28.358Z,97687.53
2023-10-22T08:26:54.990Z,97698.78
2023-10-22T08:29:21.586Z,97704.47
2023-10-22T08:31:48.086Z,97703.47
2023-10-22T08:34:14.546Z,97701.56
2023-10-22T08:36:43.208Z,97706.09
2023-10-22T08:39:11.191Z,97707.63
2023-10-22T08:41:39.746Z,97706.63
2023-10-22T08:44:06.686Z,97707.09
2023-10-22T08:46:36.077Z,97704.06
2023-10-22T08:49:06.903Z,97712.81
2023-10-22T08:51:33.614Z,97716.53
2023-10-22T08:54:02.133Z,97721.16
2023-10-22T08:56:29.565Z,97715.00
2023-10-22T08:59:02.046Z,97718.09
2023-10-22T09:01:28.697Z,97718.94
2023-10-22T09:03:58.164Z,97713.72
2023-10-22T09:06:25.022Z,97713.09
2023-10-22T09:08:52.861Z,97704.78
2023-10-22T09:11:21.228Z,97710.53
2023-10-22T09:13:48.456Z,97715.31
2023-10-22T09:16:35.333Z,97718.31
2023-10-22T09:19:03.289Z,97715.13
2023-10-22T09:21:41.708Z,97717.78
2023-10-22T09:24:08.678Z,97725.25
2023-10-22T09:26:43.368Z,97709.63
2023-10-22T09:29:09.987Z,97715.97
2023-10-22T09:31:36.957Z,97713.34
2023-10-22T09:34:04.286Z,97721.78
2023-10-22T09:36:30.857Z,97717.66
2023-10-22T09:38:57.708Z,97720.72
2023-10-22T09:41:25.726Z,97719.16
2023-10-22T09:43:55.982Z,97719.41
2023-10-22T09:46:26.118Z,97725.44
2023-10-22T09:48:56.174Z,97723.53
2023-10-22T09:51:24.218Z,97711.53
2023-10-22T09:53:55.298Z,97710.94
2023-10-22T09:56:22.928Z,97718.13
2023-10-22T09:58:59.499Z,97717.50
2023-10-22T10:01:28.172Z,97721.16
2023-10-22T10:03:58.975Z,97716.31
2023-10-22T10:06:26.788Z,97708.09
2023-10-22T10:08:54.484Z,97710.53
2023-10-22T10:11:22.296Z,97703.66
2023-10-22T10:13:49.154Z,97713.63
2023-10-22T10:16:15.592Z,97711.50
2023-10-22T10:19:01.786Z,97703.50
2023-10-22T10:21:39.329Z,97702.56
2023-10-22T10:24:26.229Z,97707.63
2023-10-22T10:27:13.982Z,97702.66
2023-10-22T10:29:41.349Z,97710.63
2023-10-22T10:32:17.054Z,97713.53
2023-10-22T10:34:46.545Z,97714.88
2023-10-22T10:37:22.057Z,97714.69
2023-10-22T10:39:49.734Z,97714.94
2023-10-22T10:42:37.707Z,97703.38
2023-10-22T10:45:08.605Z,97701.91
2023-10-22T10:47:43.173Z,97702.91
2023-10-22T10:50:14.396Z,97697.66
2023-10-22T10:52:43.605Z,97703.44
2023-10-22T10:55:17.333Z,97699.88
2023-10-22T10:57:49.372Z,97700.72
2023-10-22T11:00:23.310Z,97700.53
2023-10-22T11:02:51.821Z,97698.47
2023-10-22T11:05:30.947Z,97699.41
2023-10-22T11:07:57.860Z,97698.47
2023-10-22T11:10:24.345Z,97698.91
2023-10-22T11:12:54.740Z,97700.41
2023-10-22T11:15:21.318Z,97692.84
2023-10-22T11:17:47.830Z,97692.41
2023-10-22T11:20:16.617Z,97699.69
2023-10-22T11:22:43.219Z,97695.72
2023-10-22T11:25:11.319Z,97701.50
2023-10-22T11:27:39.841Z,97703.94
2023-10-22T11:30:07.624Z,97702.13
2023-10-22T11:32:37.293Z,97704.44
2023-10-22T11:35:08.885Z,97713.59
2023-10-22T11:37:40.351Z,97715.16
2023-10-22T11:40:26.531Z,97709.97
2023-10-22T11:42:54.049Z,97713.31
2023-10-22T11:45:21.373Z,97720.06
2023-10-22T11:47:48.126Z,97712.25
2023-10-22T11:50:15.651Z,97713.84
2023-10-22T11:52:55.177Z,97715.13
2023-10-22T11:55:36.636Z,97714.09
2023-10-22T11:58:16.645Z,97710.97
2023-10-22T12:00:43.087Z,97706.53
2023-10-22T12:03:09.742Z,97704.34
2023-10-22T12:05:36.283Z,97709.34
2023-10-22T12:08:02.779Z,97715.47
2023-10-22T12:10:29.974Z,97705.91
2023-10-22T12:12:56.850Z,97714.09
2023-10-22T12:15:23.401Z,97720.47
2023-10-22T12:17:49.973Z,97718.69
2023-10-22T12:20:16.455Z,97726.69
2023-10-22T12:22:42.934Z,97719.34
2023-10-22T12:25:09.796Z,97722.56
2023-10-22T12:27:37.544Z,97725.69
2023-10-22T12:30:06.051Z,97730.50
2023-10-22T12:32:32.617Z,97732.06
2023-10-22T12:34:59.238Z,97727.47
2023-10-22T12:37:25.732Z,97734.66
2023-10-22T12:39:52.410Z,97734.56
2023-10-22T12:42:18.896Z,97733.91
2023-10-22T12:44:46.274Z,97728.38
2023-10-22T12:47:16.760Z,97733.69
2023-10-22T12:49:44.350Z,97730.91
2023-10-22T12:52:12.046Z,97723.16
2023-10-22T12:54:42.476Z,97729.94
2023-10-22T12:57:10.217Z,97730.97
2023-10-22T12:59:36.702Z,97735.00
2023-10-22T13:02:04.926Z,97740.09
2023-10-22T13:04:31.614Z,97737.94
2023-10-22T13:06:59.879Z,97746.16
2023-10-22T13:09:26.589Z,97753.31
2023-10-22T13:11:54.609Z,97752.38
2023-10-22T13:14:23.696Z,97754.97
2023-10-22T13:16:50.492Z,97756.97
2023-10-22T13:19:17.129Z,97755.22
2023-10-22T13:21:44.352Z,97755.72
2023-10-22T13:24:11.206Z,97758.81
2023-10-22T13:26:37.750Z,97747.84
2023-10-22T13:29:07.686Z,97756.94
2023-10-22T13:31:35.105Z,97753.19
2023-10-22T13:34:02.148Z,97764.75
2023-10-22T13:36:28.721Z,97769.78
2023-10-22T13:38:55.353Z,97766.94
2023-10-22T13:41:21.860Z,97771.03
2023-10-22T13:43:48.564Z,97777.50
2023-10-22T13:46:15.173Z,97780.09
2023-10-22T13:48:41.868Z,97779.84
2023-10-22T13:51:08.552Z,97779.66
2023-10-22T13:53:35.221Z,97779.16
2023-10-22T13:56:01.752Z,97788.63
2023-10-22T13:58:31.232Z,97793.44
2023-10-22T14:00:57.814Z,97788.56
2023-10-22T14:03:24.496Z,97792.91
2023-10-22T14:05:52.549Z,97797.72
2023-10-22T14:08:22.336Z,97801.13
2023-10-22T14:10:49.825Z,97801.19
2023-10-22T14:13:17.973Z,97798.59
2023-10-22T14:15:46.171Z,97800.63
2023-10-22T14:18:12.986Z,97791.69
2023-10-22T14:20:39.686Z,97791.66
2023-10-22T14:23:06.202Z,97793.75
2023-10-22T14:25:32.830Z,97788.47
2023-10-22T14:27:59.359Z,97798.94
2023-10-22T14:30:25.971Z,97791.78
2023-10-22T14:32:52.531Z,97794.75
2023-10-22T14:35:19.088Z,97788.97
2023-10-22T14:37:45.543Z,97794.53
2023-10-22T14:40:12.128Z,97793.59
2023-10-22T14:42:38.717Z,97792.66
2023-10-22T14:45:07.383Z,97796.94
2023-10-22T14:47:33.943Z,97793.44
2023-10-22T14:50:00.643Z,97795.84
2023-10-22T14:52:27.236Z,97800.69
2023-10-22T14:54:53.760Z,97795.41
2023-10-22T14:57:20.745Z,97794.88
2023-10-22T14:59:48.392Z,97798.44
2023-10-22T15:02:15.212Z,97801.53
2023-10-22T15:04:41.858Z,97799.69
2023-10-22T15:07:08.641Z,97807.41
2023-10-22T15:09:37.692Z,97805.81
2023-10-22T15:12:04.834Z,97800.53
2023-10-22T15:14:31.375Z,97808.91
2023-10-22T15:16:58.322Z,97811.78
2023-10-22T15:19:24.872Z,97815.03
2023-10-22T15:21:51.337Z,97810.63
2023-10-22T15:24:17.860Z,97821.66
2023-10-22T15:26:44.645Z,97819.31
2023-10-22T15:29:15.584Z,97823.44
2023-10-22T15:31:45.130Z,97824.09
2023-10-22T15:34:12.338Z,97828.09
2023-10-22T15:36:39.842Z,97830.72
2023-10-22T15:45:27.126Z,97831.03
2023-10-22T15:47:55.049Z,97837.53
2023-10-22T15:50:23.656Z,97847.28
2023-10-22T15:52:51.765Z,97845.06
2023-10-22T15:55:19.253Z,97849.78
2023-10-22T15:57:52.582Z,97857.88
2023-10-22T16:00:23.175Z,97852.50
2023-10-22T16:02:50.481Z,97852.03
2023-10-22T16:05:18.296Z,97861.19
2023-10-22T16:07:45.236Z,97852.88
2023-10-22T16:10:12.010Z,97849.13
2023-10-22T16:12:39.738Z,97858.81
2023-10-22T16:15:07.836Z,97861.91
2023-10-22T16:17:41.962Z,97864.66
2023-10-22T16:20:10.278Z,97861.41
2023-10-22T16:22:37.219Z,97871.22
2023-10-22T16:27:48.719Z,97864.00
2023-10-22T16:30:15.484Z,97861.53
2023-10-22T16:32:42.168Z,97863.50
2023-10-22T16:35:09.227Z,97863.78
2023-10-22T16:37:36.191Z,97863.19
2023-10-22T16:40:02.679Z,97876.75
2023-10-22T16:42:29.920Z,97881.94
2023-10-22T16:44:56.549Z,97889.00
2023-10-22T16:47:23.139Z,97886.63
2023-10-22T16:49:50.233Z,97886.81
2023-10-22T16:52:16.763Z,97887.84
2023-10-22T16:54:43.340Z,97886.22
2023-10-22T16:57:10.040Z,97888.16
2023-10-22T16:59:36.712Z,97894.53
2023-10-22T17:02:03.674Z,97895.69
2023-10-22T17:04:30.384Z,97902.06
2023-10-22T17:06:56.960Z,97897.16
2023-10-22T17:09:23.517Z,97899.94
2023-10-22T17:11:50.062Z,97908.63
2023-10-22T17:14:16.608Z,97910.41
2023-10-22T17:16:43.187Z,97908.00
2023-10-22T17:19:09.867Z,97913.22
2023-10-22T17:21:38.822Z,97914.03
2023-10-22T17:24:05.831Z,97921.03
2023-10-22T17:26:34.852Z,97916.88
2023-10-22T17:29:01.506Z,97916.00
2023-10-22T17:31:28.331Z,97917.75
2023-10-22T17:34:04.938Z,97921.16
2023-10-22T17:36:33.304Z,97921.28
2023-10-22T17:39:00.055Z,97933.34
2023-10-22T17:41:26.632Z,97928.34
2023-10-22T17:43:53.179Z,97926.75
2023-10-22T17:46:19.746Z,97930.47
2023-10-22T17:48:47.539Z,97933.25
2023-10-22T17:51:14.622Z,97934.41
2023-10-22T17:53:41.271Z,97935.94
2023-10-22T17:56:10.386Z,97941.63
2023-10-22T17:58:38.615Z,97946.69
2023-10-22T18:01:06.030Z,97949.72
2023-10-22T18:03:35.489Z,97945.78
2023-10-22T18:06:03.407Z,97946.06
2023-10-22T18:08:30.583Z,97951.50
2023-10-22T18:10:58.461Z,97949.19
2023-10-22T18:13:29.449Z,97948.66
2023-10-22T18:16:00.251Z,97953.97
2023-10-22T18:18:27.353Z,97948.41
2023-10-22T18:20:54.405Z,97954.50
2023-10-22T18:23:22.054Z,97962.41
2023-10-22T18:26:05.491Z,97959.81
2023-10-22T18:28:32.841Z,97969.13
2023-10-22T18:30:59.618Z,97968.31
2023-10-22T18:33:26.290Z,97968.38
2023-10-22T18:35:53.108Z,97973.47
2023-10-22T18:38:19.646Z,97975.91
2023-10-22T18:40:51.137Z,97977.59
2023-10-22T18:43:17.893Z,97982.69
2023-10-22T18:45:44.946Z,97991.16
2023-10-22T18:48:13.266Z,97989.41
2023-10-22T18:50:40.320Z,97991.16
2023-10-22T18:53:06.806Z,97990.31
2023-10-22T18:55:33.418Z,97990.31
2023-10-22T18:57:59.897Z,97994.63
2023-10-22T19:00:26.525Z,97991.31
2023-10-22T19:02:53.183Z,97998.47
2023-10-22T19:05:19.823Z,97997.78
2023-10-22T19:07:46.676Z,98007.44
2023-10-22T19:10:14.723Z,98006.81
2023-10-22T19:12:42.978Z,98008.78
2023-10-22T19:15:13.608Z,98017.34
2023-10-22T19:17:42.123Z,98008.94
2023-10-22T19:20:09.403Z,98015.84
2023-10-22T19:22:36.462Z,98014.13
2023-10-22T19:25:04.597Z,98014.13
2023-10-22T19:27:37.206Z,98009.19
2023-10-22T19:30:05.765Z,98011.09
2023-10-22T19:32:32.681Z,98015.63
2023-10-22T19:34:59.302Z,98017.50
2023-10-22T19:37:26.677Z,98012.59
2023-10-22T19:39:56.121Z,98019.50
2023-10-22T19:42:23.173Z,98017.91
2023-10-22T19:44:49.651Z,98017.22
2023-10-22T19:47:16.412Z,98017.41
2023-10-22T19:49:42.902Z,98026.72
2023-10-22T19:52:09.334Z,98026.78
2023-10-22T19:54:35.944Z,98029.19
2023-10-22T19:57:05.759Z,98033.63
2023-10-22T19:59:33.391Z,98035.44
2023-10-22T20:02:14.813Z,98030.44
2023-10-22T20:04:44.679Z,98024.38
2023-10-22T20:07:11.433Z,98032.28
2023-10-22T20:09:38.385Z,98026.50
2023-10-22T20:12:06.816Z,98026.50
2023-10-22T20:14:34.285Z,98032.66
2023-10-22T20:17:02.564Z,98036.19
2023-10-22T20:19:29.777Z,98036.19
2023-10-22T20:21:56.372Z,98037.88
2023-10-22T20:24:23.791Z,98037.94
2023-10-22T20:26:50.352Z,98033.69
2023-10-22T20:29:17.437Z,98050.75
2023-10-22T20:31:44.110Z,98039.63
2023-10-22T20:34:11.316Z,98051.69
2023-10-22T20:36:38.654Z,98049.13
2023-10-22T20:39:09.323Z,98045.78
2023-10-22T20:41:35.878Z,98057.03
2023-10-22T20:44:02.472Z,98058.66
2023-10-22T20:46:29.441Z,98048.06
2023-10-22T20:48:56.543Z,98050.28
2023-10-22T20:51:23.217Z,98042.56
2023-10-22T20:53:49.935Z,98049.50
2023-10-22T20:56:16.619Z,98046.84
2023-10-22T20:58:43.535Z,98044.31
2023-10-22T21:01:22.252Z,98047.63
2023-10-22T21:03:49.364Z,98046.03
2023-10-22T21:06:16.579Z,98050.28
2023-10-22T21:08:43.734Z,98046.72
2023-10-22T21:11:11.674Z,98044.09
2023-10-22T21:13:38.364Z,98042.34
2023-10-22T21:16:05.095Z,98049.31
2023-10-22T21:18:32.097Z,98048.66
2023-10-22T21:20:59.390Z,98052.22
2023-10-22T21:23:27.013Z,98051.44
2023-10-22T21:25:54.282Z,98057.50
2023-10-22T21:28:21.232Z,98055.03
2023-10-22T21:30:48.783Z,98053.38
2023-10-22T21:33:17.967Z,98056.06
2023-10-22T21:35:45.864Z,98053.63
2023-10-22T21:38:12.940Z,98054.50
2023-10-22T21:40:39.462Z,98061.22
2023-10-22T21:43:06.105Z,98066.47
2023-10-22T21:45:32.942Z,98059.03
2023-10-22T21:47:59.600Z,98063.31
2023-10-22T21:50:26.115Z,98057.41
2023-10-22T21:52:52.703Z,98060.88
2023-10-22T21:55:22.289Z,98057.41
2023-10-22T21:57:52.032Z,98057.41
2023-10-22T22:00:21.935Z,98058.16
2023-10-22T22:02:48.694Z,98058.09
2023-10-22T22:05:15.476Z,98059.66
2023-10-22T22:07:41.960Z,98055.41
2023-10-22T22:10:08.979Z,98058.06
2023-10-22T22:12:36.377Z,98058.22
2023-10-22T22:15:03.875Z,98064.34
2023-10-22T22:17:30.535Z,98059.34
2023-10-22T22:19:57.101Z,98056.84
2023-10-22T22:22:23.753Z,98057.75
2023-10-22T22:24:50.519Z,98057.81
2023-10-22T22:27:17.291Z,98056.13
2023-10-22T22:29:43.821Z,98055.09
2023-10-22T22:32:10.381Z,98051.16
2023-10-22T22:34:37.028Z,98051.19
2023-10-22T22:37:03.915Z,98056.28
2023-10-22T22:39:30.472Z,98054.47
2023-10-22T22:41:57.021Z,98064.38
2023-10-22T22:44:23.476Z,98064.31
2023-10-22T22:46:49.969Z,98060.81
2023-10-22T22:49:16.945Z,98059.09
2023-10-22T22:51:44.610Z,98072.84
2023-10-22T22:54:11.346Z,98070.59
2023-10-22T22:56:37.916Z,98069.84
2023-10-22T22:59:04.630Z,98064.03
2023-10-22T23:01:31.185Z,98068.50
2023-10-22T23:03:57.704Z,98066.13
2023-10-22T23:06:24.240Z,98063.63
2023-10-22T23:08:50.827Z,98054.59
2023-10-22T23:11:17.369Z,98053.91
2023-10-22T23:13:43.906Z,98061.72
2023-10-22T23:16:10.690Z,98052.38
2023-10-22T23:18:37.460Z,98055.88
2023-10-22T23:21:04.139Z,98051.63
2023-10-22T23:23:30.632Z,98063.72
2023-10-22T23:25:57.217Z,98061.13
2023-10-22T23:28:24.159Z,98056.00
2023-10-22T23:30:51.777Z,98056.00
2023-10-22T23:33:21.225Z,98059.56
2023-10-22T23:35:47.878Z,98068.22
2023-10-22T23:38:14.396Z,98054.50
2023-10-22T23:40:41.134Z,98058.03
2023-10-22T23:43:07.700Z,98061.47
2023-10-22T23:45:34.212Z,98061.56
2023-10-22T23:48:00.769Z,98064.22
2023-10-22T23:50:27.252Z,98068.66
2023-10-22T23:52:53.744Z,98073.03
2023-10-22T23:55:20.545Z,98067.16
2023-10-22T23:57:47.054Z,98072.34
